PWSweather.com
Personal Weather Stations
Station Observations
ANTHEMNP
Anthem, AZ 85086

Anthem, AZ 85086

Lat: 33.876464, Lon: -112.13861199999997

Elevation: 1930

Station Type: AcuRite 1036

High Low Average
Temperature 94.7°F34.8°C 68.2°F20.1°C 79.2°F26.2°C
Dew Point 44.5°F6.9°C 29.3°F-1.5°C 36.8°F2.7°C
Winds 8.1 mph 13.0 kmh Calm Calm 4.0 mph ESE6.4 kmh ESE
Wind Gusts 10.4 mph16.7 kmh -- 4.0 mph6.4 kmh
Humidity 29% 14% 22%
Pressure 29.93 in1013.5 mb 29.82 in1009.8 mb -
Precipitation 0.00 in0.0 mm - -
Hour Temp Dew Point Humidity Winds Wind Gusts Pressure Precip Precip Rate Daily Precip Total
12:00 AM 72.5°F22.5°C 34.7°F1.5°C 25% 5.8 mph NE9.3 kmh NE 8.1 mph13.0 kmh 29.89 in1012.2 mb - 0.00 in0.0 mm 0.00 in0.0 mm
12:05 AM 72.5°F22.5°C 34.7°F1.5°C 25% 6.9 mph NNW11.1 kmh NNW 8.1 mph13.0 kmh 29.89 in1012.2 mb - 0.00 in0.0 mm 0.00 in0.0 mm
12:10 AM 72.5°F22.5°C 34.7°F1.5°C 25% 5.8 mph NNE9.3 kmh NNE 8.1 mph13.0 kmh 29.89 in1012.2 mb - 0.00 in0.0 mm 0.00 in0.0 mm
12:15 AM 72.5°F22.5°C 34.7°F1.5°C 25% 5.8 mph NW9.3 kmh NW 6.9 mph11.1 kmh 29.89 in1012.2 mb - 0.00 in0.0 mm 0.00 in0.0 mm
12:20 AM 72.5°F22.5°C 34.7°F1.5°C 25% 5.8 mph NE9.3 kmh NE 5.8 mph9.3 kmh 29.89 in1012.2 mb - 0.00 in0.0 mm 0.00 in0.0 mm
12:25 AM 72.5°F22.5°C 34.7°F1.5°C 25% 4.6 mph N7.4 kmh N 5.8 mph9.3 kmh 29.89 in1012.2 mb - 0.00 in0.0 mm 0.00 in0.0 mm
12:30 AM 72.3°F22.4°C 34.5°F1.4°C 25% 5.8 mph N9.3 kmh N 5.8 mph9.3 kmh 29.89 in1012.2 mb - 0.00 in0.0 mm 0.00 in0.0 mm
12:35 AM 72.1°F22.3°C 34.3°F1.3°C 25% 5.8 mph N9.3 kmh N 5.8 mph9.3 kmh 29.89 in1012.2 mb - 0.00 in0.0 mm 0.00 in0.0 mm
12:40 AM 72.0°F22.2°C 34.2°F1.2°C 25% 5.8 mph NNE9.3 kmh NNE 5.8 mph9.3 kmh 29.89 in1012.2 mb - 0.00 in0.0 mm 0.00 in0.0 mm
12:45 AM 71.6°F22.0°C 33.9°F1.1°C 25% 4.6 mph NNE7.4 kmh NNE 6.9 mph11.1 kmh 29.89 in1012.2 mb - 0.00 in0.0 mm 0.00 in0.0 mm
12:50 AM 71.4°F21.9°C 33.7°F0.9°C 25% 4.6 mph NE7.4 kmh NE 5.8 mph9.3 kmh 29.89 in1012.2 mb - 0.00 in0.0 mm 0.00 in0.0 mm
12:55 AM 71.3°F21.8°C 33.6°F0.9°C 25% 5.8 mph NE9.3 kmh NE 6.9 mph11.1 kmh 29.89 in1012.2 mb - 0.00 in0.0 mm 0.00 in0.0 mm
01:00 AM 71.2°F21.8°C 33.6°F0.9°C 25% 5.8 mph NNE9.3 kmh NNE 5.8 mph9.3 kmh 29.89 in1012.2 mb - 0.00 in0.0 mm 0.00 in0.0 mm
01:05 AM 71.2°F21.8°C 33.6°F0.9°C 25% 5.8 mph NNE9.3 kmh NNE 5.8 mph9.3 kmh 29.89 in1012.2 mb - 0.00 in0.0 mm 0.00 in0.0 mm
01:10 AM 71.2°F21.8°C 33.6°F0.9°C 25% 5.8 mph NNE9.3 kmh NNE 5.8 mph9.3 kmh 29.89 in1012.2 mb - 0.00 in0.0 mm 0.00 in0.0 mm
01:15 AM 71.2°F21.8°C 33.6°F0.9°C 25% 4.6 mph NE7.4 kmh NE 5.8 mph9.3 kmh 29.89 in1012.2 mb - 0.00 in0.0 mm 0.00 in0.0 mm
01:20 AM 71.1°F21.7°C 33.5°F0.8°C 25% 4.6 mph NE7.4 kmh NE 5.8 mph9.3 kmh 29.89 in1012.2 mb - 0.00 in0.0 mm 0.00 in0.0 mm
01:25 AM 70.9°F21.6°C 33.3°F0.7°C 25% 5.8 mph NNE9.3 kmh NNE 6.9 mph11.1 kmh 29.89 in1012.2 mb - 0.00 in0.0 mm 0.00 in0.0 mm
01:30 AM 70.9°F21.6°C 33.3°F0.7°C 25% 4.6 mph NE7.4 kmh NE 5.8 mph9.3 kmh 29.89 in1012.2 mb - 0.00 in0.0 mm 0.00 in0.0 mm
01:35 AM 70.7°F21.5°C 33.1°F0.6°C 25% 4.6 mph N7.4 kmh N 5.8 mph9.3 kmh 29.89 in1012.2 mb - 0.00 in0.0 mm 0.00 in0.0 mm
01:40 AM 70.5°F21.4°C 33.0°F0.6°C 25% 4.6 mph N7.4 kmh N 8.1 mph13.0 kmh 29.89 in1012.2 mb - 0.00 in0.0 mm 0.00 in0.0 mm
01:45 AM 70.3°F21.3°C 32.8°F0.4°C 25% 4.6 mph NNE7.4 kmh NNE 5.8 mph9.3 kmh 29.89 in1012.2 mb - 0.00 in0.0 mm 0.00 in0.0 mm
01:50 AM 70.3°F21.3°C 32.8°F0.4°C 25% 4.6 mph N7.4 kmh N 5.8 mph9.3 kmh 29.89 in1012.2 mb - 0.00 in0.0 mm 0.00 in0.0 mm
01:55 AM 70.2°F21.2°C 32.7°F0.4°C 25% 4.6 mph N7.4 kmh N 5.8 mph9.3 kmh 29.89 in1012.2 mb - 0.00 in0.0 mm 0.00 in0.0 mm
02:00 AM 70.2°F21.2°C 32.7°F0.4°C 25% 3.5 mph NW5.6 kmh NW 4.6 mph7.4 kmh 29.89 in1012.2 mb - 0.00 in0.0 mm 0.00 in0.0 mm
02:05 AM 70.0°F21.1°C 32.5°F0.3°C 25% 3.5 mph NNE5.6 kmh NNE 5.8 mph9.3 kmh 29.89 in1012.2 mb - 0.00 in0.0 mm 0.00 in0.0 mm
02:10 AM 70.0°F21.1°C 32.5°F0.3°C 25% 5.8 mph NE9.3 kmh NE 6.9 mph11.1 kmh 29.89 in1012.2 mb - 0.00 in0.0 mm 0.00 in0.0 mm
02:15 AM 70.0°F21.1°C 32.5°F0.3°C 25% 5.8 mph ENE9.3 kmh ENE 5.8 mph9.3 kmh 29.89 in1012.2 mb - 0.00 in0.0 mm 0.00 in0.0 mm
02:20 AM 70.0°F21.1°C 32.5°F0.3°C 25% 4.6 mph NNE7.4 kmh NNE 5.8 mph9.3 kmh 29.89 in1012.2 mb - 0.00 in0.0 mm 0.00 in0.0 mm
02:25 AM 70.0°F21.1°C 32.5°F0.3°C 25% 5.8 mph NE9.3 kmh NE 6.9 mph11.1 kmh 29.88 in1011.9 mb - 0.00 in0.0 mm 0.00 in0.0 mm
02:30 AM 69.8°F21.0°C 32.4°F0.2°C 25% 4.6 mph N7.4 kmh N 5.8 mph9.3 kmh 29.88 in1011.9 mb - 0.00 in0.0 mm 0.00 in0.0 mm
02:35 AM 69.6°F20.9°C 33.2°F0.7°C 26% 5.8 mph N9.3 kmh N 6.9 mph11.1 kmh 29.88 in1011.9 mb - 0.00 in0.0 mm 0.00 in0.0 mm
02:40 AM 69.6°F20.9°C 33.2°F0.7°C 26% 5.8 mph N9.3 kmh N 8.1 mph13.0 kmh 29.88 in1011.9 mb - 0.00 in0.0 mm 0.00 in0.0 mm
02:45 AM 69.8°F21.0°C 33.3°F0.7°C 26% 4.6 mph N7.4 kmh N 5.8 mph9.3 kmh 29.88 in1011.9 mb - 0.00 in0.0 mm 0.00 in0.0 mm
02:50 AM 69.8°F21.0°C 33.3°F0.7°C 26% 5.8 mph N9.3 kmh N 5.8 mph9.3 kmh 29.88 in1011.9 mb - 0.00 in0.0 mm 0.00 in0.0 mm
02:55 AM 69.8°F21.0°C 33.3°F0.7°C 26% 4.6 mph ENE7.4 kmh ENE 4.6 mph7.4 kmh 29.88 in1011.9 mb - 0.00 in0.0 mm 0.00 in0.0 mm
03:00 AM 69.6°F20.9°C 33.2°F0.7°C 26% 4.6 mph NNE7.4 kmh NNE 5.8 mph9.3 kmh 29.88 in1011.9 mb - 0.00 in0.0 mm 0.00 in0.0 mm
03:05 AM 69.6°F20.9°C 33.2°F0.7°C 26% 4.6 mph N7.4 kmh N 5.8 mph9.3 kmh 29.88 in1011.9 mb - 0.00 in0.0 mm 0.00 in0.0 mm
03:10 AM 69.6°F20.9°C 33.2°F0.7°C 26% 4.6 mph NE7.4 kmh NE 5.8 mph9.3 kmh 29.87 in1011.5 mb - 0.00 in0.0 mm 0.00 in0.0 mm
03:15 AM 69.6°F20.9°C 33.2°F0.7°C 26% 6.9 mph NW11.1 kmh NW 6.9 mph11.1 kmh 29.87 in1011.5 mb - 0.00 in0.0 mm 0.00 in0.0 mm
03:20 AM 69.6°F20.9°C 33.2°F0.7°C 26% 4.6 mph NE7.4 kmh NE 5.8 mph9.3 kmh 29.87 in1011.5 mb - 0.00 in0.0 mm 0.00 in0.0 mm
03:25 AM 69.4°F20.8°C 33.0°F0.6°C 26% 4.6 mph NNE7.4 kmh NNE 4.6 mph7.4 kmh 29.87 in1011.5 mb - 0.00 in0.0 mm 0.00 in0.0 mm
03:30 AM 69.4°F20.8°C 33.0°F0.6°C 26% 4.6 mph N7.4 kmh N 5.8 mph9.3 kmh 29.87 in1011.5 mb - 0.00 in0.0 mm 0.00 in0.0 mm
03:35 AM 69.4°F20.8°C 33.0°F0.6°C 26% 4.6 mph NNE7.4 kmh NNE 4.6 mph7.4 kmh 29.87 in1011.5 mb - 0.00 in0.0 mm 0.00 in0.0 mm
03:40 AM 69.6°F20.9°C 33.2°F0.7°C 26% 4.6 mph N7.4 kmh N 4.6 mph7.4 kmh 29.87 in1011.5 mb - 0.00 in0.0 mm 0.00 in0.0 mm
03:45 AM 69.6°F20.9°C 33.2°F0.7°C 26% 4.6 mph N7.4 kmh N 5.8 mph9.3 kmh 29.88 in1011.9 mb - 0.00 in0.0 mm 0.00 in0.0 mm
03:50 AM 69.8°F21.0°C 33.3°F0.7°C 26% 4.6 mph NNE7.4 kmh NNE 6.9 mph11.1 kmh 29.88 in1011.9 mb - 0.00 in0.0 mm 0.00 in0.0 mm
03:55 AM 69.8°F21.0°C 33.3°F0.7°C 26% 3.5 mph NNE5.6 kmh NNE 4.6 mph7.4 kmh 29.88 in1011.9 mb - 0.00 in0.0 mm 0.00 in0.0 mm
04:00 AM 69.8°F21.0°C 33.3°F0.7°C 26% 5.8 mph N9.3 kmh N 6.9 mph11.1 kmh 29.88 in1011.9 mb - 0.00 in0.0 mm 0.00 in0.0 mm
04:05 AM 69.6°F20.9°C 33.2°F0.7°C 26% 4.6 mph N7.4 kmh N 5.8 mph9.3 kmh 29.88 in1011.9 mb - 0.00 in0.0 mm 0.00 in0.0 mm
04:10 AM 69.6°F20.9°C 33.2°F0.7°C 26% 4.6 mph NE7.4 kmh NE 4.6 mph7.4 kmh 29.87 in1011.5 mb - 0.00 in0.0 mm 0.00 in0.0 mm
04:15 AM 69.6°F20.9°C 33.2°F0.7°C 26% 5.8 mph NNE9.3 kmh NNE 8.1 mph13.0 kmh 29.87 in1011.5 mb - 0.00 in0.0 mm 0.00 in0.0 mm
04:20 AM 69.4°F20.8°C 33.0°F0.6°C 26% 4.6 mph N7.4 kmh N 5.8 mph9.3 kmh 29.87 in1011.5 mb - 0.00 in0.0 mm 0.00 in0.0 mm
04:25 AM 69.4°F20.8°C 33.9°F1.1°C 27% 4.6 mph NE7.4 kmh NE 5.8 mph9.3 kmh 29.87 in1011.5 mb - 0.00 in0.0 mm 0.00 in0.0 mm
04:30 AM 69.4°F20.8°C 33.9°F1.1°C 27% 5.8 mph NE9.3 kmh NE 6.9 mph11.1 kmh 29.87 in1011.5 mb - 0.00 in0.0 mm 0.00 in0.0 mm
04:35 AM 69.4°F20.8°C 33.9°F1.1°C 27% 4.6 mph N7.4 kmh N 6.9 mph11.1 kmh 29.88 in1011.9 mb - 0.00 in0.0 mm 0.00 in0.0 mm
04:40 AM 69.3°F20.7°C 33.9°F1.1°C 27% 4.6 mph N7.4 kmh N 4.6 mph7.4 kmh 29.88 in1011.9 mb - 0.00 in0.0 mm 0.00 in0.0 mm
04:45 AM 69.1°F20.6°C 33.7°F0.9°C 27% 4.6 mph N7.4 kmh N 5.8 mph9.3 kmh 29.88 in1011.9 mb - 0.00 in0.0 mm 0.00 in0.0 mm
04:50 AM 68.9°F20.5°C 33.5°F0.8°C 27% 5.8 mph ENE9.3 kmh ENE 6.9 mph11.1 kmh 29.88 in1011.9 mb - 0.00 in0.0 mm 0.00 in0.0 mm
04:55 AM 68.9°F20.5°C 33.5°F0.8°C 27% 5.8 mph N9.3 kmh N 6.9 mph11.1 kmh 29.88 in1011.9 mb - 0.00 in0.0 mm 0.00 in0.0 mm
05:00 AM 69.1°F20.6°C 33.7°F0.9°C 27% 5.8 mph NNE9.3 kmh NNE 5.8 mph9.3 kmh 29.88 in1011.9 mb - 0.00 in0.0 mm 0.00 in0.0 mm
05:05 AM 69.1°F20.6°C 33.7°F0.9°C 27% 4.6 mph NE7.4 kmh NE 5.8 mph9.3 kmh 29.88 in1011.9 mb - 0.00 in0.0 mm 0.00 in0.0 mm
05:10 AM 69.1°F20.6°C 33.7°F0.9°C 27% 5.8 mph NE9.3 kmh NE 5.8 mph9.3 kmh 29.89 in1012.2 mb - 0.00 in0.0 mm 0.00 in0.0 mm
05:15 AM 69.1°F20.6°C 33.7°F0.9°C 27% 4.6 mph NNE7.4 kmh NNE 4.6 mph7.4 kmh 29.89 in1012.2 mb - 0.00 in0.0 mm 0.00 in0.0 mm
05:20 AM 69.1°F20.6°C 33.7°F0.9°C 27% 5.8 mph NE9.3 kmh NE 6.9 mph11.1 kmh 29.89 in1012.2 mb - 0.00 in0.0 mm 0.00 in0.0 mm
05:25 AM 69.1°F20.6°C 33.7°F0.9°C 27% 5.8 mph NNE9.3 kmh NNE 8.1 mph13.0 kmh 29.89 in1012.2 mb - 0.00 in0.0 mm 0.00 in0.0 mm
05:30 AM 69.1°F20.6°C 33.7°F0.9°C 27% 5.8 mph NNE9.3 kmh NNE 5.8 mph9.3 kmh 29.89 in1012.2 mb - 0.00 in0.0 mm 0.00 in0.0 mm
05:35 AM 68.9°F20.5°C 34.4°F1.3°C 28% 4.6 mph N7.4 kmh N 5.8 mph9.3 kmh 29.89 in1012.2 mb - 0.00 in0.0 mm 0.00 in0.0 mm
05:40 AM 68.7°F20.4°C 34.3°F1.3°C 28% 4.6 mph N7.4 kmh N 5.8 mph9.3 kmh 29.89 in1012.2 mb - 0.00 in0.0 mm 0.00 in0.0 mm
05:45 AM 68.7°F20.4°C 34.3°F1.3°C 28% 4.6 mph NNE7.4 kmh NNE 4.6 mph7.4 kmh 29.89 in1012.2 mb - 0.00 in0.0 mm 0.00 in0.0 mm
05:50 AM 68.7°F20.4°C 34.3°F1.3°C 28% 5.8 mph NE9.3 kmh NE 6.9 mph11.1 kmh 29.89 in1012.2 mb - 0.00 in0.0 mm 0.00 in0.0 mm
05:55 AM 68.7°F20.4°C 34.3°F1.3°C 28% 3.5 mph NNE5.6 kmh NNE 5.8 mph9.3 kmh 29.89 in1012.2 mb - 0.00 in0.0 mm 0.00 in0.0 mm
06:00 AM 68.7°F20.4°C 34.3°F1.3°C 28% 6.9 mph N11.1 kmh N 9.2 mph14.8 kmh 29.89 in1012.2 mb - 0.00 in0.0 mm 0.00 in0.0 mm
06:05 AM 68.7°F20.4°C 34.3°F1.3°C 28% 5.8 mph NE9.3 kmh NE 5.8 mph9.3 kmh 29.89 in1012.2 mb - 0.00 in0.0 mm 0.00 in0.0 mm
06:10 AM 68.7°F20.4°C 34.3°F1.3°C 28% 4.6 mph ENE7.4 kmh ENE 5.8 mph9.3 kmh 29.89 in1012.2 mb - 0.00 in0.0 mm 0.00 in0.0 mm
06:15 AM 68.5°F20.3°C 34.1°F1.2°C 28% 4.6 mph NNE7.4 kmh NNE 5.8 mph9.3 kmh 29.89 in1012.2 mb - 0.00 in0.0 mm 0.00 in0.0 mm
06:20 AM 68.2°F20.1°C 34.7°F1.5°C 29% 3.5 mph NE5.6 kmh NE 5.8 mph9.3 kmh 29.89 in1012.2 mb - 0.00 in0.0 mm 0.00 in0.0 mm
06:25 AM 68.5°F20.3°C 35.0°F1.7°C 29% 6.9 mph NNW11.1 kmh NNW 6.9 mph11.1 kmh 29.89 in1012.2 mb - 0.00 in0.0 mm 0.00 in0.0 mm
06:30 AM 68.5°F20.3°C 35.0°F1.7°C 29% 4.6 mph NE7.4 kmh NE 4.6 mph7.4 kmh 29.89 in1012.2 mb - 0.00 in0.0 mm 0.00 in0.0 mm
06:35 AM 68.5°F20.3°C 35.0°F1.7°C 29% 4.6 mph NE7.4 kmh NE 6.9 mph11.1 kmh 29.89 in1012.2 mb - 0.00 in0.0 mm 0.00 in0.0 mm
06:40 AM 68.5°F20.3°C 35.0°F1.7°C 29% 4.6 mph NNE7.4 kmh NNE 5.8 mph9.3 kmh 29.89 in1012.2 mb - 0.00 in0.0 mm 0.00 in0.0 mm
06:45 AM 68.4°F20.2°C 34.9°F1.6°C 29% 4.6 mph N7.4 kmh N 4.6 mph7.4 kmh 29.89 in1012.2 mb - 0.00 in0.0 mm 0.00 in0.0 mm
06:50 AM 68.4°F20.2°C 34.9°F1.6°C 29% 4.6 mph NE7.4 kmh NE 4.6 mph7.4 kmh 29.89 in1012.2 mb - 0.00 in0.0 mm 0.00 in0.0 mm
06:55 AM 68.4°F20.2°C 34.9°F1.6°C 29% 5.8 mph N9.3 kmh N 6.9 mph11.1 kmh 29.89 in1012.2 mb - 0.00 in0.0 mm 0.00 in0.0 mm
07:00 AM 68.5°F20.3°C 35.0°F1.7°C 29% 4.6 mph N7.4 kmh N 5.8 mph9.3 kmh 29.89 in1012.2 mb - 0.00 in0.0 mm 0.00 in0.0 mm
07:05 AM 68.7°F20.4°C 35.1°F1.7°C 29% 4.6 mph NW7.4 kmh NW 5.8 mph9.3 kmh 29.89 in1012.2 mb - 0.00 in0.0 mm 0.00 in0.0 mm
07:10 AM 68.7°F20.4°C 35.1°F1.7°C 29% 4.6 mph NE7.4 kmh NE 4.6 mph7.4 kmh 29.89 in1012.2 mb - 0.00 in0.0 mm 0.00 in0.0 mm
07:15 AM 68.9°F20.5°C 35.3°F1.8°C 29% 4.6 mph NE7.4 kmh NE 5.8 mph9.3 kmh 29.89 in1012.2 mb - 0.00 in0.0 mm 0.00 in0.0 mm
07:20 AM 69.3°F20.7°C 35.6°F2.0°C 29% 5.8 mph N9.3 kmh N 6.9 mph11.1 kmh 29.90 in1012.5 mb - 0.00 in0.0 mm 0.00 in0.0 mm
07:25 AM 69.6°F20.9°C 35.9°F2.2°C 29% 4.6 mph NE7.4 kmh NE 4.6 mph7.4 kmh 29.90 in1012.5 mb - 0.00 in0.0 mm 0.00 in0.0 mm
07:30 AM 69.9°F21.1°C 36.2°F2.3°C 29% 6.9 mph N11.1 kmh N 6.9 mph11.1 kmh 29.90 in1012.5 mb - 0.00 in0.0 mm 0.00 in0.0 mm
07:35 AM 70.0°F21.1°C 36.3°F2.4°C 29% 4.6 mph NE7.4 kmh NE 4.6 mph7.4 kmh 29.90 in1012.5 mb - 0.00 in0.0 mm 0.00 in0.0 mm
07:40 AM 70.2°F21.2°C 36.4°F2.4°C 29% 3.5 mph E5.6 kmh E 5.8 mph9.3 kmh 29.90 in1012.5 mb - 0.00 in0.0 mm 0.00 in0.0 mm
07:45 AM 70.7°F21.5°C 36.9°F2.7°C 29% 4.6 mph N7.4 kmh N 5.8 mph9.3 kmh 29.91 in1012.9 mb - 0.00 in0.0 mm 0.00 in0.0 mm
07:50 AM 71.3°F21.8°C 36.5°F2.5°C 28% 5.8 mph NNE9.3 kmh NNE 6.9 mph11.1 kmh 29.91 in1012.9 mb - 0.00 in0.0 mm 0.00 in0.0 mm
07:55 AM 71.8°F22.1°C 36.9°F2.7°C 28% 3.5 mph N5.6 kmh N 2.3 mph3.7 kmh 29.91 in1012.9 mb - 0.00 in0.0 mm 0.00 in0.0 mm
08:00 AM 72.3°F22.4°C 37.4°F3.0°C 28% 4.6 mph NE7.4 kmh NE 5.8 mph9.3 kmh 29.91 in1012.9 mb - 0.00 in0.0 mm 0.00 in0.0 mm
08:05 AM 73.5°F23.1°C 37.5°F3.1°C 27% 5.8 mph NNE9.3 kmh NNE 5.8 mph9.3 kmh 29.91 in1012.9 mb - 0.00 in0.0 mm 0.00 in0.0 mm
08:10 AM 75.3°F24.1°C 38.1°F3.4°C 26% 5.8 mph NNE9.3 kmh NNE 5.8 mph9.3 kmh 29.92 in1013.2 mb - 0.00 in0.0 mm 0.00 in0.0 mm
08:15 AM 76.6°F24.8°C 38.1°F3.4°C 25% 4.6 mph NE7.4 kmh NE 5.8 mph9.3 kmh 29.92 in1013.2 mb - 0.00 in0.0 mm 0.00 in0.0 mm
08:20 AM 77.9°F25.5°C 39.2°F4.0°C 25% 4.6 mph NE7.4 kmh NE 5.8 mph9.3 kmh 29.92 in1013.2 mb - 0.00 in0.0 mm 0.00 in0.0 mm
08:25 AM 77.7°F25.4°C 39.1°F3.9°C 25% 2.3 mph NE3.7 kmh NE 5.8 mph9.3 kmh 29.92 in1013.2 mb - 0.00 in0.0 mm 0.00 in0.0 mm
08:30 AM 77.2°F25.1°C 38.6°F3.7°C 25% 3.5 mph NE5.6 kmh NE 3.5 mph5.6 kmh 29.92 in1013.2 mb - 0.00 in0.0 mm 0.00 in0.0 mm
08:35 AM 76.5°F24.7°C 38.0°F3.3°C 25% 1.2 mph NE1.9 kmh NE 2.3 mph3.7 kmh 29.92 in1013.2 mb - 0.00 in0.0 mm 0.00 in0.0 mm
08:40 AM 76.6°F24.8°C 38.1°F3.4°C 25% 2.3 mph NNW3.7 kmh NNW 2.3 mph3.7 kmh 29.92 in1013.2 mb - 0.00 in0.0 mm 0.00 in0.0 mm
08:45 AM 77.5°F25.3°C 38.9°F3.8°C 25% 2.3 mph N3.7 kmh N 3.5 mph5.6 kmh 29.93 in1013.5 mb - 0.00 in0.0 mm 0.00 in0.0 mm
08:50 AM 77.2°F25.1°C 38.6°F3.7°C 25% 3.5 mph NNE5.6 kmh NNE 4.6 mph7.4 kmh 29.93 in1013.5 mb - 0.00 in0.0 mm 0.00 in0.0 mm
08:55 AM 76.7°F24.8°C 38.2°F3.4°C 25% 2.3 mph NE3.7 kmh NE 5.8 mph9.3 kmh 29.93 in1013.5 mb - 0.00 in0.0 mm 0.00 in0.0 mm
09:00 AM 77.4°F25.2°C 38.8°F3.8°C 25% 4.6 mph NE7.4 kmh NE 5.8 mph9.3 kmh 29.93 in1013.5 mb - 0.00 in0.0 mm 0.00 in0.0 mm
09:05 AM 78.4°F25.8°C 38.6°F3.7°C 24% 2.3 mph E3.7 kmh E 3.5 mph5.6 kmh 29.93 in1013.5 mb - 0.00 in0.0 mm 0.00 in0.0 mm
09:10 AM 79.3°F26.3°C 39.3°F4.1°C 24% 2.3 mph ENE3.7 kmh ENE 2.3 mph3.7 kmh 29.93 in1013.5 mb - 0.00 in0.0 mm 0.00 in0.0 mm
09:15 AM 80.1°F26.7°C 40.1°F4.5°C 24% 2.3 mph NW3.7 kmh NW 3.5 mph5.6 kmh 29.93 in1013.5 mb - 0.00 in0.0 mm 0.00 in0.0 mm
09:20 AM 81.2°F27.3°C 39.8°F4.3°C 23% 2.3 mph N3.7 kmh N 2.3 mph3.7 kmh 29.93 in1013.5 mb - 0.00 in0.0 mm 0.00 in0.0 mm
09:25 AM 81.5°F27.5°C 40.2°F4.6°C 23% 2.3 mph NE3.7 kmh NE 3.5 mph5.6 kmh 29.93 in1013.5 mb - 0.00 in0.0 mm 0.00 in0.0 mm
09:30 AM 82.6°F28.1°C 39.9°F4.4°C 22% 3.5 mph NNE5.6 kmh NNE 5.8 mph9.3 kmh 29.93 in1013.5 mb - 0.00 in0.0 mm 0.00 in0.0 mm
09:35 AM 83.7°F28.7°C 40.8°F4.9°C 22% 2.3 mph S3.7 kmh S 3.5 mph5.6 kmh 29.92 in1013.2 mb - 0.00 in0.0 mm 0.00 in0.0 mm
09:40 AM 84.0°F28.9°C 41.1°F5.1°C 22% Calm Calm -- 29.92 in1013.2 mb - 0.00 in0.0 mm 0.00 in0.0 mm
09:45 AM 83.8°F28.8°C 40.9°F4.9°C 22% Calm Calm -- 29.92 in1013.2 mb - 0.00 in0.0 mm 0.00 in0.0 mm
09:50 AM 85.1°F29.5°C 40.7°F4.8°C 21% Calm Calm -- 29.92 in1013.2 mb - 0.00 in0.0 mm 0.00 in0.0 mm
09:55 AM 85.8°F29.9°C 41.3°F5.2°C 21% 2.3 mph SE3.7 kmh SE 2.3 mph3.7 kmh 29.92 in1013.2 mb - 0.00 in0.0 mm 0.00 in0.0 mm
10:00 AM 86.5°F30.3°C 41.9°F5.5°C 21% Calm Calm 2.3 mph3.7 kmh 29.92 in1013.2 mb - 0.00 in0.0 mm 0.00 in0.0 mm
10:05 AM 86.2°F30.1°C 42.9°F6.1°C 22% 3.5 mph S5.6 kmh S 8.1 mph13.0 kmh 29.92 in1013.2 mb - 0.00 in0.0 mm 0.00 in0.0 mm
10:10 AM 86.9°F30.5°C 42.3°F5.7°C 21% 3.5 mph SSE5.6 kmh SSE 4.6 mph7.4 kmh 29.92 in1013.2 mb - 0.00 in0.0 mm 0.00 in0.0 mm
10:15 AM 87.3°F30.7°C 42.6°F5.9°C 21% 4.6 mph SE7.4 kmh SE 5.8 mph9.3 kmh 29.92 in1013.2 mb - 0.00 in0.0 mm 0.00 in0.0 mm
10:20 AM 87.3°F30.7°C 42.6°F5.9°C 21% 4.6 mph SW7.4 kmh SW 3.5 mph5.6 kmh 29.92 in1013.2 mb - 0.00 in0.0 mm 0.00 in0.0 mm
10:25 AM 87.6°F30.9°C 42.8°F6.0°C 21% 3.5 mph WSW5.6 kmh WSW 5.8 mph9.3 kmh 29.92 in1013.2 mb - 0.00 in0.0 mm 0.00 in0.0 mm
10:30 AM 88.1°F31.2°C 43.2°F6.2°C 21% 3.5 mph SSE5.6 kmh SSE 5.8 mph9.3 kmh 29.92 in1013.2 mb - 0.00 in0.0 mm 0.00 in0.0 mm
10:35 AM 88.9°F31.6°C 42.6°F5.9°C 20% 3.5 mph ENE5.6 kmh ENE 3.5 mph5.6 kmh 29.92 in1013.2 mb - 0.00 in0.0 mm 0.00 in0.0 mm
10:40 AM 88.2°F31.2°C 42.1°F5.6°C 20% 5.8 mph SSE9.3 kmh SSE 8.1 mph13.0 kmh 29.92 in1013.2 mb - 0.00 in0.0 mm 0.00 in0.0 mm
10:45 AM 88.0°F31.1°C 41.9°F5.5°C 20% 4.6 mph SE7.4 kmh SE 6.9 mph11.1 kmh 29.92 in1013.2 mb - 0.00 in0.0 mm 0.00 in0.0 mm
10:50 AM 88.6°F31.4°C 42.4°F5.8°C 20% 5.8 mph SE9.3 kmh SE 5.8 mph9.3 kmh 29.92 in1013.2 mb - 0.00 in0.0 mm 0.00 in0.0 mm
10:55 AM 88.2°F31.2°C 42.0°F5.6°C 20% 4.6 mph SE7.4 kmh SE 6.9 mph11.1 kmh 29.92 in1013.2 mb - 0.00 in0.0 mm 0.00 in0.0 mm
11:00 AM 89.1°F31.7°C 42.8°F6.0°C 20% 4.6 mph S7.4 kmh S 5.8 mph9.3 kmh 29.91 in1012.9 mb - 0.00 in0.0 mm 0.00 in0.0 mm
11:05 AM 88.9°F31.6°C 42.6°F5.9°C 20% 5.8 mph SW9.3 kmh SW 6.9 mph11.1 kmh 29.91 in1012.9 mb - 0.00 in0.0 mm 0.00 in0.0 mm
11:10 AM 89.8°F32.1°C 43.4°F6.3°C 20% 4.6 mph S7.4 kmh S 6.9 mph11.1 kmh 29.91 in1012.9 mb - 0.00 in0.0 mm 0.00 in0.0 mm
11:15 AM 89.1°F31.7°C 42.8°F6.0°C 20% 4.6 mph S7.4 kmh S 6.9 mph11.1 kmh 29.91 in1012.9 mb - 0.00 in0.0 mm 0.00 in0.0 mm
11:20 AM 90.3°F32.4°C 43.8°F6.6°C 20% 4.6 mph E7.4 kmh E 4.6 mph7.4 kmh 29.91 in1012.9 mb - 0.00 in0.0 mm 0.00 in0.0 mm
11:25 AM 90.7°F32.6°C 42.8°F6.0°C 19% 5.8 mph SSE9.3 kmh SSE 6.9 mph11.1 kmh 29.91 in1012.9 mb - 0.00 in0.0 mm 0.00 in0.0 mm
11:30 AM 90.8°F32.7°C 42.9°F6.1°C 19% 8.1 mph SE13.0 kmh SE 6.9 mph11.1 kmh 29.91 in1012.9 mb - 0.00 in0.0 mm 0.00 in0.0 mm
11:35 AM 90.2°F32.3°C 42.4°F5.8°C 19% 3.5 mph S5.6 kmh S 3.5 mph5.6 kmh 29.91 in1012.9 mb - 0.00 in0.0 mm 0.00 in0.0 mm
11:40 AM 88.2°F31.2°C 42.1°F5.6°C 20% 4.6 mph S7.4 kmh S 4.6 mph7.4 kmh 29.91 in1012.9 mb - 0.00 in0.0 mm 0.00 in0.0 mm
11:45 AM 89.4°F31.9°C 43.1°F6.2°C 20% 4.6 mph SE7.4 kmh SE 6.9 mph11.1 kmh 29.90 in1012.5 mb - 0.00 in0.0 mm 0.00 in0.0 mm
11:50 AM 90.1°F32.3°C 43.6°F6.4°C 20% 3.5 mph SSW5.6 kmh SSW 6.9 mph11.1 kmh 29.90 in1012.5 mb - 0.00 in0.0 mm 0.00 in0.0 mm
11:55 AM 90.1°F32.3°C 43.6°F6.4°C 20% 4.6 mph WSW7.4 kmh WSW 4.6 mph7.4 kmh 29.90 in1012.5 mb - 0.00 in0.0 mm 0.00 in0.0 mm
12:00 PM 91.2°F32.9°C 43.2°F6.2°C 19% 6.9 mph SW11.1 kmh SW 6.9 mph11.1 kmh 29.90 in1012.5 mb - 0.00 in0.0 mm 0.00 in0.0 mm
12:05 PM 91.6°F33.1°C 43.5°F6.4°C 19% 4.6 mph ESE7.4 kmh ESE 5.8 mph9.3 kmh 29.90 in1012.5 mb - 0.00 in0.0 mm 0.00 in0.0 mm
12:10 PM 91.3°F32.9°C 43.2°F6.2°C 19% 3.5 mph S5.6 kmh S 4.6 mph7.4 kmh 29.89 in1012.2 mb - 0.00 in0.0 mm 0.00 in0.0 mm
12:15 PM 91.8°F33.2°C 43.7°F6.5°C 19% 6.9 mph S11.1 kmh S 8.1 mph13.0 kmh 29.89 in1012.2 mb - 0.00 in0.0 mm 0.00 in0.0 mm
12:20 PM 92.5°F33.6°C 44.3°F6.8°C 19% 4.6 mph SSE7.4 kmh SSE 4.6 mph7.4 kmh 29.89 in1012.2 mb - 0.00 in0.0 mm 0.00 in0.0 mm
12:25 PM 92.3°F33.5°C 44.1°F6.7°C 19% 3.5 mph SSW5.6 kmh SSW 4.6 mph7.4 kmh 29.89 in1012.2 mb - 0.00 in0.0 mm 0.00 in0.0 mm
12:30 PM 92.5°F33.6°C 44.3°F6.8°C 19% 5.8 mph S9.3 kmh S 5.8 mph9.3 kmh 29.89 in1012.2 mb - 0.00 in0.0 mm 0.00 in0.0 mm
12:35 PM 92.8°F33.8°C 44.5°F6.9°C 19% 4.6 mph SSE7.4 kmh SSE 6.9 mph11.1 kmh 29.88 in1011.9 mb - 0.00 in0.0 mm 0.00 in0.0 mm
12:40 PM 92.5°F33.6°C 44.3°F6.8°C 19% 4.6 mph SW7.4 kmh SW 5.8 mph9.3 kmh 29.88 in1011.9 mb - 0.00 in0.0 mm 0.00 in0.0 mm
12:45 PM 93.6°F34.2°C 43.7°F6.5°C 18% 5.8 mph S9.3 kmh S 5.8 mph9.3 kmh 29.88 in1011.9 mb - 0.00 in0.0 mm 0.00 in0.0 mm
12:50 PM 93.9°F34.4°C 44.0°F6.7°C 18% 4.6 mph SW7.4 kmh SW 9.2 mph14.8 kmh 29.88 in1011.9 mb - 0.00 in0.0 mm 0.00 in0.0 mm
12:55 PM 93.0°F33.9°C 43.2°F6.2°C 18% 5.8 mph N9.3 kmh N 5.8 mph9.3 kmh 29.88 in1011.9 mb - 0.00 in0.0 mm 0.00 in0.0 mm
01:00 PM 93.1°F33.9°C 43.3°F6.3°C 18% 4.6 mph SSE7.4 kmh SSE 3.5 mph5.6 kmh 29.87 in1011.5 mb - 0.00 in0.0 mm 0.00 in0.0 mm
01:05 PM 94.0°F34.4°C 44.0°F6.7°C 18% 3.5 mph SE5.6 kmh SE 9.2 mph14.8 kmh 29.87 in1011.5 mb - 0.00 in0.0 mm 0.00 in0.0 mm
01:10 PM 94.4°F34.7°C 44.4°F6.9°C 18% 4.6 mph SE7.4 kmh SE 5.8 mph9.3 kmh 29.87 in1011.5 mb - 0.00 in0.0 mm 0.00 in0.0 mm
01:15 PM 94.4°F34.7°C 44.3°F6.8°C 18% 5.8 mph S9.3 kmh S 6.9 mph11.1 kmh 29.87 in1011.5 mb - 0.00 in0.0 mm 0.00 in0.0 mm
01:20 PM 93.4°F34.1°C 43.6°F6.4°C 18% 5.8 mph SW9.3 kmh SW 5.8 mph9.3 kmh 29.86 in1011.2 mb - 0.00 in0.0 mm 0.00 in0.0 mm
01:25 PM 93.2°F34.0°C 43.4°F6.3°C 18% 5.8 mph SSW9.3 kmh SSW 5.8 mph9.3 kmh 29.86 in1011.2 mb - 0.00 in0.0 mm 0.00 in0.0 mm
01:30 PM 93.9°F34.4°C 44.0°F6.7°C 18% 4.6 mph SSW7.4 kmh SSW 5.8 mph9.3 kmh 29.86 in1011.2 mb - 0.00 in0.0 mm 0.00 in0.0 mm
01:35 PM 93.7°F34.3°C 43.8°F6.6°C 18% 4.6 mph S7.4 kmh S 5.8 mph9.3 kmh 29.85 in1010.8 mb - 0.00 in0.0 mm 0.00 in0.0 mm
01:40 PM 93.7°F34.3°C 43.8°F6.6°C 18% 4.6 mph SW7.4 kmh SW 5.8 mph9.3 kmh 29.85 in1010.8 mb - 0.00 in0.0 mm 0.00 in0.0 mm
01:45 PM 93.5°F34.2°C 43.7°F6.5°C 18% 4.6 mph S7.4 kmh S 5.8 mph9.3 kmh 29.85 in1010.8 mb - 0.00 in0.0 mm 0.00 in0.0 mm
01:50 PM 94.3°F34.6°C 44.3°F6.8°C 18% 3.5 mph S5.6 kmh S 5.8 mph9.3 kmh 29.85 in1010.8 mb - 0.00 in0.0 mm 0.00 in0.0 mm
01:55 PM 94.1°F34.5°C 44.1°F6.7°C 18% 8.1 mph WSW13.0 kmh WSW 8.1 mph13.0 kmh 29.85 in1010.8 mb - 0.00 in0.0 mm 0.00 in0.0 mm
02:00 PM 94.1°F34.5°C 44.1°F6.7°C 18% 4.6 mph SSE7.4 kmh SSE 6.9 mph11.1 kmh 29.84 in1010.5 mb - 0.00 in0.0 mm 0.00 in0.0 mm
02:05 PM 94.6°F34.8°C 44.5°F6.9°C 18% 3.5 mph S5.6 kmh S 4.6 mph7.4 kmh 29.84 in1010.5 mb - 0.00 in0.0 mm 0.00 in0.0 mm
02:10 PM 94.3°F34.6°C 44.3°F6.8°C 18% 5.8 mph W9.3 kmh W 6.9 mph11.1 kmh 29.85 in1010.8 mb - 0.00 in0.0 mm 0.00 in0.0 mm
02:15 PM 94.1°F34.5°C 44.1°F6.7°C 18% 5.8 mph WNW9.3 kmh WNW 5.8 mph9.3 kmh 29.85 in1010.8 mb - 0.00 in0.0 mm 0.00 in0.0 mm
02:20 PM 94.0°F34.4°C 44.1°F6.7°C 18% 8.1 mph SSE13.0 kmh SSE 9.2 mph14.8 kmh 29.85 in1010.8 mb - 0.00 in0.0 mm 0.00 in0.0 mm
02:25 PM 94.0°F34.4°C 44.0°F6.7°C 18% 3.5 mph E5.6 kmh E 4.6 mph7.4 kmh 29.84 in1010.5 mb - 0.00 in0.0 mm 0.00 in0.0 mm
02:30 PM 94.7°F34.8°C 43.1°F6.2°C 17% 5.8 mph SSW9.3 kmh SSW 8.1 mph13.0 kmh 29.84 in1010.5 mb - 0.00 in0.0 mm 0.00 in0.0 mm
02:35 PM 94.6°F34.8°C 43.0°F6.1°C 17% 5.8 mph S9.3 kmh S 6.9 mph11.1 kmh 29.84 in1010.5 mb - 0.00 in0.0 mm 0.00 in0.0 mm
02:40 PM 93.6°F34.2°C 42.2°F5.7°C 17% 6.9 mph SW11.1 kmh SW 8.1 mph13.0 kmh 29.84 in1010.5 mb - 0.00 in0.0 mm 0.00 in0.0 mm
02:45 PM 94.2°F34.6°C 44.2°F6.8°C 18% 3.5 mph SSW5.6 kmh SSW 5.8 mph9.3 kmh 29.84 in1010.5 mb - 0.00 in0.0 mm 0.00 in0.0 mm
02:50 PM 94.5°F34.7°C 43.0°F6.1°C 17% 5.8 mph SSW9.3 kmh SSW 5.8 mph9.3 kmh 29.84 in1010.5 mb - 0.00 in0.0 mm 0.00 in0.0 mm
02:55 PM 94.1°F34.5°C 42.6°F5.9°C 17% 5.8 mph S9.3 kmh S 5.8 mph9.3 kmh 29.84 in1010.5 mb - 0.00 in0.0 mm 0.00 in0.0 mm
03:00 PM 94.5°F34.7°C 42.9°F6.1°C 17% 3.5 mph SW5.6 kmh SW 5.8 mph9.3 kmh 29.84 in1010.5 mb - 0.00 in0.0 mm 0.00 in0.0 mm
03:05 PM 94.1°F34.5°C 42.6°F5.9°C 17% 5.8 mph S9.3 kmh S 8.1 mph13.0 kmh 29.84 in1010.5 mb - 0.00 in0.0 mm 0.00 in0.0 mm
03:10 PM 94.4°F34.7°C 42.9°F6.1°C 17% 4.6 mph SSW7.4 kmh SSW 10.4 mph16.7 kmh 29.84 in1010.5 mb - 0.00 in0.0 mm 0.00 in0.0 mm
03:15 PM 93.7°F34.3°C 40.7°F4.8°C 16% 8.1 mph SSW13.0 kmh SSW 10.4 mph16.7 kmh 29.84 in1010.5 mb - 0.00 in0.0 mm 0.00 in0.0 mm
03:20 PM 93.5°F34.2°C 40.6°F4.8°C 16% 4.6 mph SW7.4 kmh SW 4.6 mph7.4 kmh 29.84 in1010.5 mb - 0.00 in0.0 mm 0.00 in0.0 mm
03:25 PM 94.7°F34.8°C 41.5°F5.3°C 16% 3.5 mph S5.6 kmh S 8.1 mph13.0 kmh 29.84 in1010.5 mb - 0.00 in0.0 mm 0.00 in0.0 mm
03:30 PM 93.7°F34.3°C 40.7°F4.8°C 16% 4.6 mph SW7.4 kmh SW 3.5 mph5.6 kmh 29.84 in1010.5 mb - 0.00 in0.0 mm 0.00 in0.0 mm
03:35 PM 93.9°F34.4°C 40.9°F4.9°C 16% 5.8 mph WNW9.3 kmh WNW 5.8 mph9.3 kmh 29.83 in1010.2 mb - 0.00 in0.0 mm 0.00 in0.0 mm
03:40 PM 93.0°F33.9°C 41.7°F5.4°C 17% 6.9 mph SW11.1 kmh SW 10.4 mph16.7 kmh 29.83 in1010.2 mb - 0.00 in0.0 mm 0.00 in0.0 mm
03:45 PM 93.0°F33.9°C 41.7°F5.4°C 17% 5.8 mph SSW9.3 kmh SSW 8.1 mph13.0 kmh 29.83 in1010.2 mb - 0.00 in0.0 mm 0.00 in0.0 mm
03:50 PM 92.7°F33.7°C 41.5°F5.3°C 17% 3.5 mph S5.6 kmh S 4.6 mph7.4 kmh 29.83 in1010.2 mb - 0.00 in0.0 mm 0.00 in0.0 mm
03:55 PM 93.3°F34.1°C 42.0°F5.6°C 17% 5.8 mph SSW9.3 kmh SSW 6.9 mph11.1 kmh 29.83 in1010.2 mb - 0.00 in0.0 mm 0.00 in0.0 mm
04:00 PM 93.5°F34.2°C 42.2°F5.7°C 17% 4.6 mph S7.4 kmh S 6.9 mph11.1 kmh 29.83 in1010.2 mb - 0.00 in0.0 mm 0.00 in0.0 mm
04:05 PM 93.6°F34.2°C 42.3°F5.7°C 17% 4.6 mph SSW7.4 kmh SSW 5.8 mph9.3 kmh 29.83 in1010.2 mb - 0.00 in0.0 mm 0.00 in0.0 mm
04:10 PM 93.2°F34.0°C 38.7°F3.7°C 15% 5.8 mph S9.3 kmh S 9.2 mph14.8 kmh 29.83 in1010.2 mb - 0.00 in0.0 mm 0.00 in0.0 mm
04:15 PM 92.3°F33.5°C 38.0°F3.3°C 15% 5.8 mph S9.3 kmh S 5.8 mph9.3 kmh 29.83 in1010.2 mb - 0.00 in0.0 mm 0.00 in0.0 mm
04:20 PM 92.8°F33.8°C 40.0°F4.4°C 16% 4.6 mph S7.4 kmh S 5.8 mph9.3 kmh 29.83 in1010.2 mb - 0.00 in0.0 mm 0.00 in0.0 mm
04:25 PM 92.2°F33.4°C 39.5°F4.2°C 16% 3.5 mph S5.6 kmh S 5.8 mph9.3 kmh 29.83 in1010.2 mb - 0.00 in0.0 mm 0.00 in0.0 mm
04:30 PM 92.0°F33.3°C 37.7°F3.2°C 15% 4.6 mph SE7.4 kmh SE 8.1 mph13.0 kmh 29.83 in1010.2 mb - 0.00 in0.0 mm 0.00 in0.0 mm
04:35 PM 91.7°F33.2°C 37.5°F3.1°C 15% 4.6 mph SSW7.4 kmh SSW 5.8 mph9.3 kmh 29.82 in1009.8 mb - 0.00 in0.0 mm 0.00 in0.0 mm
04:40 PM 91.7°F33.2°C 37.5°F3.1°C 15% 2.3 mph SSE3.7 kmh SSE 5.8 mph9.3 kmh 29.82 in1009.8 mb - 0.00 in0.0 mm 0.00 in0.0 mm
04:45 PM 91.0°F32.8°C 35.2°F1.8°C 14% 8.1 mph SSW13.0 kmh SSW 9.2 mph14.8 kmh 29.82 in1009.8 mb - 0.00 in0.0 mm 0.00 in0.0 mm
04:50 PM 91.0°F32.8°C 35.2°F1.8°C 14% 4.6 mph SW7.4 kmh SW 4.6 mph7.4 kmh 29.82 in1009.8 mb - 0.00 in0.0 mm 0.00 in0.0 mm
04:55 PM 91.0°F32.8°C 36.9°F2.7°C 15% 3.5 mph SSE5.6 kmh SSE 4.6 mph7.4 kmh 29.82 in1009.8 mb - 0.00 in0.0 mm 0.00 in0.0 mm
05:00 PM 90.8°F32.7°C 38.4°F3.6°C 16% 6.9 mph SSW11.1 kmh SSW 6.9 mph11.1 kmh 29.83 in1010.2 mb - 0.00 in0.0 mm 0.00 in0.0 mm
05:05 PM 90.1°F32.3°C 37.9°F3.3°C 16% 2.3 mph SW3.7 kmh SW 2.3 mph3.7 kmh 29.83 in1010.2 mb - 0.00 in0.0 mm 0.00 in0.0 mm
05:10 PM 90.0°F32.2°C 37.8°F3.2°C 16% 6.9 mph S11.1 kmh S 6.9 mph11.1 kmh 29.83 in1010.2 mb - 0.00 in0.0 mm 0.00 in0.0 mm
05:15 PM 89.8°F32.1°C 37.6°F3.1°C 16% 4.6 mph SSW7.4 kmh SSW 6.9 mph11.1 kmh 29.83 in1010.2 mb - 0.00 in0.0 mm 0.00 in0.0 mm
05:20 PM 89.5°F31.9°C 38.9°F3.8°C 17% 3.5 mph SSW5.6 kmh SSW 3.5 mph5.6 kmh 29.83 in1010.2 mb - 0.00 in0.0 mm 0.00 in0.0 mm
05:25 PM 89.2°F31.8°C 38.7°F3.7°C 17% 4.6 mph S7.4 kmh S 5.8 mph9.3 kmh 29.83 in1010.2 mb - 0.00 in0.0 mm 0.00 in0.0 mm
05:30 PM 88.9°F31.6°C 36.9°F2.7°C 16% 4.6 mph S7.4 kmh S 9.2 mph14.8 kmh 29.83 in1010.2 mb - 0.00 in0.0 mm 0.00 in0.0 mm
05:35 PM 88.5°F31.4°C 35.0°F1.7°C 15% 3.5 mph SW5.6 kmh SW 5.8 mph9.3 kmh 29.83 in1010.2 mb - 0.00 in0.0 mm 0.00 in0.0 mm
05:40 PM 88.2°F31.2°C 36.3°F2.4°C 16% 4.6 mph SW7.4 kmh SW 5.8 mph9.3 kmh 29.83 in1010.2 mb - 0.00 in0.0 mm 0.00 in0.0 mm
05:55 PM 87.2°F30.7°C 37.0°F2.8°C 17% 4.6 mph S7.4 kmh S 5.8 mph9.3 kmh 29.83 in1010.2 mb - 0.00 in0.0 mm 0.00 in0.0 mm
06:00 PM 86.5°F30.3°C 36.5°F2.5°C 17% 3.5 mph S5.6 kmh S 3.5 mph5.6 kmh 29.82 in1009.8 mb - 0.00 in0.0 mm 0.00 in0.0 mm
06:05 PM 86.1°F30.1°C 36.2°F2.3°C 17% 2.3 mph S3.7 kmh S 2.3 mph3.7 kmh 29.82 in1009.8 mb - 0.00 in0.0 mm 0.00 in0.0 mm
06:10 PM 85.6°F29.8°C 37.2°F2.9°C 18% 2.3 mph SW3.7 kmh SW 2.3 mph3.7 kmh 29.82 in1009.8 mb - 0.00 in0.0 mm 0.00 in0.0 mm
06:15 PM 85.2°F29.6°C 36.9°F2.7°C 18% 1.2 mph S1.9 kmh S 2.3 mph3.7 kmh 29.82 in1009.8 mb - 0.00 in0.0 mm 0.00 in0.0 mm
06:20 PM 84.7°F29.3°C 36.5°F2.5°C 18% Calm Calm -- 29.83 in1010.2 mb - 0.00 in0.0 mm 0.00 in0.0 mm
06:25 PM 84.2°F29.0°C 36.1°F2.3°C 18% Calm Calm -- 29.83 in1010.2 mb - 0.00 in0.0 mm 0.00 in0.0 mm
06:30 PM 83.7°F28.7°C 35.7°F2.1°C 18% Calm Calm -- 29.83 in1010.2 mb - 0.00 in0.0 mm 0.00 in0.0 mm
06:35 PM 82.9°F28.3°C 36.4°F2.4°C 19% Calm Calm -- 29.83 in1010.2 mb - 0.00 in0.0 mm 0.00 in0.0 mm
06:40 PM 82.2°F27.9°C 37.1°F2.8°C 20% Calm Calm -- 29.83 in1010.2 mb - 0.00 in0.0 mm 0.00 in0.0 mm
06:45 PM 81.6°F27.6°C 36.6°F2.6°C 20% Calm Calm -- 29.83 in1010.2 mb - 0.00 in0.0 mm 0.00 in0.0 mm
06:50 PM 81.0°F27.2°C 36.1°F2.3°C 20% Calm Calm -- 29.83 in1010.2 mb - 0.00 in0.0 mm 0.00 in0.0 mm
06:55 PM 80.4°F26.9°C 35.6°F2.0°C 20% Calm Calm -- 29.83 in1010.2 mb - 0.00 in0.0 mm 0.00 in0.0 mm
07:00 PM 80.0°F26.7°C 35.3°F1.8°C 20% Calm Calm -- 29.83 in1010.2 mb - 0.00 in0.0 mm 0.00 in0.0 mm
07:05 PM 78.8°F26.0°C 36.7°F2.6°C 22% Calm Calm -- 29.83 in1010.2 mb - 0.00 in0.0 mm 0.00 in0.0 mm
07:10 PM 78.6°F25.9°C 36.6°F2.6°C 22% Calm Calm -- 29.83 in1010.2 mb - 0.00 in0.0 mm 0.00 in0.0 mm
07:15 PM 78.1°F25.6°C 36.1°F2.3°C 22% Calm Calm -- 29.83 in1010.2 mb - 0.00 in0.0 mm 0.00 in0.0 mm
07:20 PM 77.9°F25.5°C 36.0°F2.2°C 22% Calm Calm -- 29.83 in1010.2 mb - 0.00 in0.0 mm 0.00 in0.0 mm
07:25 PM 78.1°F25.6°C 36.1°F2.3°C 22% Calm Calm -- 29.83 in1010.2 mb - 0.00 in0.0 mm 0.00 in0.0 mm
07:30 PM 77.5°F25.3°C 35.7°F2.1°C 22% Calm Calm -- 29.83 in1010.2 mb - 0.00 in0.0 mm 0.00 in0.0 mm
07:35 PM 77.4°F25.2°C 35.6°F2.0°C 22% Calm Calm -- 29.84 in1010.5 mb - 0.00 in0.0 mm 0.00 in0.0 mm
07:40 PM 77.4°F25.2°C 35.6°F2.0°C 22% Calm Calm -- 29.84 in1010.5 mb - 0.00 in0.0 mm 0.00 in0.0 mm
07:45 PM 77.0°F25.0°C 35.2°F1.8°C 22% Calm Calm -- 29.84 in1010.5 mb - 0.00 in0.0 mm 0.00 in0.0 mm
07:50 PM 76.6°F24.8°C 34.9°F1.6°C 22% Calm Calm -- 29.84 in1010.5 mb - 0.00 in0.0 mm 0.00 in0.0 mm
07:55 PM 75.9°F24.4°C 34.3°F1.3°C 22% Calm Calm -- 29.84 in1010.5 mb - 0.00 in0.0 mm 0.00 in0.0 mm
08:00 PM 75.2°F24.0°C 33.7°F0.9°C 22% Calm Calm -- 29.84 in1010.5 mb - 0.00 in0.0 mm 0.00 in0.0 mm
08:05 PM 74.7°F23.7°C 33.3°F0.7°C 22% Calm Calm -- 29.84 in1010.5 mb - 0.00 in0.0 mm 0.00 in0.0 mm
08:10 PM 73.9°F23.3°C 32.6°F0.3°C 22% Calm Calm -- 29.84 in1010.5 mb - 0.00 in0.0 mm 0.00 in0.0 mm
08:15 PM 74.2°F23.4°C 32.9°F0.5°C 22% Calm Calm -- 29.84 in1010.5 mb - 0.00 in0.0 mm 0.00 in0.0 mm
08:20 PM 74.6°F23.7°C 33.2°F0.7°C 22% Calm Calm -- 29.84 in1010.5 mb - 0.00 in0.0 mm 0.00 in0.0 mm
08:25 PM 74.8°F23.8°C 33.4°F0.8°C 22% Calm Calm -- 29.84 in1010.5 mb - 0.00 in0.0 mm 0.00 in0.0 mm
08:30 PM 74.7°F23.7°C 33.3°F0.7°C 22% Calm Calm -- 29.84 in1010.5 mb - 0.00 in0.0 mm 0.00 in0.0 mm
08:35 PM 74.7°F23.7°C 33.3°F0.7°C 22% Calm Calm -- 29.85 in1010.8 mb - 0.00 in0.0 mm 0.00 in0.0 mm
08:40 PM 74.3°F23.5°C 33.0°F0.6°C 22% Calm Calm -- 29.85 in1010.8 mb - 0.00 in0.0 mm 0.00 in0.0 mm
08:45 PM 74.7°F23.7°C 33.3°F0.7°C 22% Calm Calm -- 29.85 in1010.8 mb - 0.00 in0.0 mm 0.00 in0.0 mm
08:50 PM 74.7°F23.7°C 33.3°F0.7°C 22% Calm Calm -- 29.85 in1010.8 mb - 0.00 in0.0 mm 0.00 in0.0 mm
08:55 PM 74.5°F23.6°C 34.2°F1.2°C 23% Calm Calm -- 29.85 in1010.8 mb - 0.00 in0.0 mm 0.00 in0.0 mm
09:00 PM 74.5°F23.6°C 34.2°F1.2°C 23% Calm Calm -- 29.85 in1010.8 mb - 0.00 in0.0 mm 0.00 in0.0 mm
09:05 PM 74.3°F23.5°C 34.1°F1.2°C 23% Calm Calm -- 29.85 in1010.8 mb - 0.00 in0.0 mm 0.00 in0.0 mm
09:10 PM 73.7°F23.2°C 33.6°F0.9°C 23% Calm Calm -- 29.85 in1010.8 mb - 0.00 in0.0 mm 0.00 in0.0 mm
09:15 PM 73.0°F22.8°C 34.1°F1.2°C 24% Calm Calm -- 29.85 in1010.8 mb - 0.00 in0.0 mm 0.00 in0.0 mm
09:20 PM 73.0°F22.8°C 34.1°F1.2°C 24% Calm Calm -- 29.85 in1010.8 mb - 0.00 in0.0 mm 0.00 in0.0 mm
09:25 PM 73.0°F22.8°C 34.1°F1.2°C 24% Calm Calm -- 29.85 in1010.8 mb - 0.00 in0.0 mm 0.00 in0.0 mm
09:30 PM 73.2°F22.9°C 34.2°F1.2°C 24% Calm Calm -- 29.85 in1010.8 mb - 0.00 in0.0 mm 0.00 in0.0 mm
09:35 PM 73.2°F22.9°C 34.2°F1.2°C 24% Calm Calm -- 29.85 in1010.8 mb - 0.00 in0.0 mm 0.00 in0.0 mm
09:40 PM 73.0°F22.8°C 34.1°F1.2°C 24% Calm Calm -- 29.85 in1010.8 mb - 0.00 in0.0 mm 0.00 in0.0 mm
09:45 PM 73.2°F22.9°C 33.2°F0.7°C 23% Calm Calm -- 29.85 in1010.8 mb - 0.00 in0.0 mm 0.00 in0.0 mm
09:50 PM 73.5°F23.1°C 33.4°F0.8°C 23% Calm Calm -- 29.85 in1010.8 mb - 0.00 in0.0 mm 0.00 in0.0 mm
09:55 PM 73.4°F23.0°C 32.2°F0.1°C 22% Calm Calm -- 29.85 in1010.8 mb - 0.00 in0.0 mm 0.00 in0.0 mm
10:00 PM 73.2°F22.9°C 32.1°F0.1°C 22% Calm Calm -- 29.85 in1010.8 mb - 0.00 in0.0 mm 0.00 in0.0 mm
10:05 PM 73.2°F22.9°C 32.1°F0.1°C 22% Calm Calm -- 29.85 in1010.8 mb - 0.00 in0.0 mm 0.00 in0.0 mm
10:10 PM 72.8°F22.7°C 31.7°F-0.2°C 22% Calm Calm -- 29.86 in1011.2 mb - 0.00 in0.0 mm 0.00 in0.0 mm
10:15 PM 72.0°F22.2°C 31.1°F-0.5°C 22% Calm Calm 1.2 mph1.9 kmh 29.86 in1011.2 mb - 0.00 in0.0 mm 0.00 in0.0 mm
10:20 PM 72.0°F22.2°C 31.0°F-0.6°C 22% Calm Calm -- 29.86 in1011.2 mb - 0.00 in0.0 mm 0.00 in0.0 mm
10:25 PM 71.4°F21.9°C 30.5°F-0.8°C 22% Calm Calm -- 29.86 in1011.2 mb - 0.00 in0.0 mm 0.00 in0.0 mm
10:30 PM 71.1°F21.7°C 30.3°F-0.9°C 22% Calm Calm 1.2 mph1.9 kmh 29.86 in1011.2 mb - 0.00 in0.0 mm 0.00 in0.0 mm
10:35 PM 71.4°F21.9°C 30.5°F-0.8°C 22% 1.2 mph NE1.9 kmh NE 1.2 mph1.9 kmh 29.86 in1011.2 mb - 0.00 in0.0 mm 0.00 in0.0 mm
10:40 PM 71.2°F21.8°C 30.4°F-0.9°C 22% Calm Calm -- 29.86 in1011.2 mb - 0.00 in0.0 mm 0.00 in0.0 mm
10:45 PM 71.0°F21.7°C 30.2°F-1.0°C 22% Calm Calm -- 29.85 in1010.8 mb - 0.00 in0.0 mm 0.00 in0.0 mm
10:50 PM 70.5°F21.4°C 29.8°F-1.2°C 22% Calm Calm -- 29.85 in1010.8 mb - 0.00 in0.0 mm 0.00 in0.0 mm
10:55 PM 70.5°F21.4°C 29.8°F-1.2°C 22% Calm Calm -- 29.85 in1010.8 mb - 0.00 in0.0 mm 0.00 in0.0 mm
11:00 PM 70.2°F21.2°C 29.5°F-1.4°C 22% Calm Calm -- 29.86 in1011.2 mb - 0.00 in0.0 mm 0.00 in0.0 mm
11:05 PM 70.5°F21.4°C 29.8°F-1.2°C 22% Calm Calm -- 29.86 in1011.2 mb - 0.00 in0.0 mm 0.00 in0.0 mm
11:10 PM 70.9°F21.6°C 30.1°F-1.1°C 22% Calm Calm -- 29.86 in1011.2 mb - 0.00 in0.0 mm 0.00 in0.0 mm
11:15 PM 71.1°F21.7°C 30.3°F-0.9°C 22% 1.2 mph ENE1.9 kmh ENE 2.3 mph3.7 kmh 29.86 in1011.2 mb - 0.00 in0.0 mm 0.00 in0.0 mm
11:20 PM 71.4°F21.9°C 30.5°F-0.8°C 22% 1.2 mph SW1.9 kmh SW 3.5 mph5.6 kmh 29.86 in1011.2 mb - 0.00 in0.0 mm 0.00 in0.0 mm
11:25 PM 70.9°F21.6°C 30.1°F-1.1°C 22% Calm Calm -- 29.86 in1011.2 mb - 0.00 in0.0 mm 0.00 in0.0 mm
11:30 PM 70.2°F21.2°C 29.5°F-1.4°C 22% Calm Calm -- 29.86 in1011.2 mb - 0.00 in0.0 mm 0.00 in0.0 mm
11:35 PM 70.3°F21.3°C 29.6°F-1.3°C 22% Calm Calm -- 29.85 in1010.8 mb - 0.00 in0.0 mm 0.00 in0.0 mm
11:40 PM 70.2°F21.2°C 29.5°F-1.4°C 22% Calm Calm -- 29.85 in1010.8 mb - 0.00 in0.0 mm 0.00 in0.0 mm
11:45 PM 69.9°F21.1°C 29.3°F-1.5°C 22% Calm Calm 2.3 mph3.7 kmh 29.86 in1011.2 mb - 0.00 in0.0 mm 0.00 in0.0 mm
11:50 PM 69.4°F20.8°C 30.0°F-1.1°C 23% Calm Calm -- 29.86 in1011.2 mb - 0.00 in0.0 mm 0.00 in0.0 mm
11:55 PM 69.4°F20.8°C 30.0°F-1.1°C 23% Calm Calm -- 29.86 in1011.2 mb - 0.00 in0.0 mm 0.00 in0.0 mm